Terminal Aerodrome Forecast
Issued by NWS Charleston, WV

Current Version | Previous Version | Graphics & Text | Print | Product List | Glossary On
Versions: 1 2 3 4 5 6 7 8 9 10 11 12 13 14 15 16 17 18 19 20 21 22 23 24
000
FTUS41 KRLX 250800 AAA
TAFEKN
TAF AMD
KEKN 250807Z 2508/2606 00000KT 1/4SM FG VV001
     FM251300 00000KT 2SM BR BKN001
     FM251400 VRB03KT 5SM BR SCT005
     FM251500 VRB03KT P6SM SKC
     FM251700 VRB03KT P6SM SCT035
     FM252300 VRB03KT P6SM SKC
     FM260500 VRB03KT 5SM BR SKC=

USA.gov is the U.S. government's official web portal to all federal, state and local government web resources and services.